createdAt,value
2018-04-25T00:00:57.956Z,15.15
2018-04-25T00:01:57.680Z,15.12
2018-04-25T00:02:57.656Z,15.09
2018-04-25T00:03:57.384Z,15.13
2018-04-25T00:04:57.634Z,15.12
2018-04-25T00:05:57.878Z,15.12
2018-04-25T00:06:57.919Z,15.11
2018-04-25T00:07:57.592Z,15.13
2018-04-25T00:08:57.315Z,15.11
2018-04-25T00:09:57.829Z,15.12
2018-04-25T00:10:57.545Z,15.13
2018-04-25T00:11:57.272Z,15.15
2018-04-25T00:12:57.809Z,15.19
2018-04-25T00:13:57.254Z,15.26
2018-04-25T00:14:57.511Z,15.24
2018-04-25T00:15:57.658Z,15.28
2018-04-25T00:16:57.735Z,15.26
2018-04-25T00:17:57.463Z,15.28
2018-04-25T00:18:57.804Z,15.33
2018-04-25T00:19:57.697Z,15.35
2018-04-25T00:20:57.419Z,15.27
2018-04-25T00:21:57.720Z,15.3
2018-04-25T00:22:57.657Z,15.33
2018-04-25T00:23:57.375Z,15.27
2018-04-25T00:24:57.361Z,15.26
2018-04-25T00:25:57.351Z,15.35
2018-04-25T00:26:57.593Z,15.35
2018-04-25T00:27:57.329Z,15.36
2018-04-25T00:28:57.318Z,15.27
2018-04-25T00:29:57.293Z,15.26
2018-04-25T00:30:57.287Z,15.24
2018-04-25T00:31:57.271Z,15.3
2018-04-25T00:32:56.991Z,15.28
2018-04-25T00:33:57.510Z,15.27
2018-04-25T00:34:57.224Z,15.28
2018-04-25T00:35:56.946Z,15.31
2018-04-25T00:36:57.213Z,15.27
2018-04-25T00:37:57.187Z,15.3
2018-04-25T00:38:57.176Z,15.33
2018-04-25T00:39:57.170Z,15.35
2018-04-25T00:40:57.147Z,15.24
2018-04-25T00:41:57.135Z,15.35
2018-04-25T00:42:56.854Z,15.41
2018-04-25T00:43:56.842Z,15.33
2018-04-25T00:44:57.106Z,15.42
2018-04-25T00:45:57.355Z,15.43
2018-04-25T00:46:57.331Z,15.41
2018-04-25T00:47:57.060Z,15.43
2018-04-25T00:48:57.305Z,15.49
2018-04-25T00:49:57.299Z,15.48
2018-04-25T00:50:57.214Z,15.48
2018-04-25T00:51:57.001Z,15.51
2018-04-25T00:52:57.259Z,15.57
2018-04-25T00:53:57.239Z,15.51
2018-04-25T00:54:57.232Z,15.46
2018-04-25T00:55:56.949Z,15.54
2018-04-25T00:56:56.941Z,15.57
2018-04-25T00:57:57.184Z,15.52
2018-04-25T00:58:56.911Z,15.46
2018-04-25T00:59:56.899Z,15.59
2018-04-25T01:00:57.149Z,15.56
2018-04-25T01:01:56.603Z,15.6
2018-04-25T01:02:56.858Z,15.56
2018-04-25T01:03:56.841Z,15.63
2018-04-25T01:04:56.835Z,15.61
2018-04-25T01:05:56.826Z,15.67
2018-04-25T01:06:56.545Z,15.74
2018-04-25T01:07:56.790Z,15.64
2018-04-25T01:08:56.771Z,15.74
2018-04-25T01:09:56.758Z,15.72
2018-04-25T01:10:56.748Z,15.76
2018-04-25T01:11:56.601Z,15.72
2018-04-25T01:12:56.987Z,15.76
2018-04-25T01:13:56.974Z,15.79
2018-04-25T01:14:56.697Z,15.89
2018-04-25T01:15:56.943Z,15.85
2018-04-25T01:16:56.606Z,15.78
2018-04-25T01:17:56.654Z,15.86
2018-04-25T01:18:56.655Z,15.85
2018-04-25T01:19:56.895Z,15.89
2018-04-25T01:20:56.617Z,15.89
2018-04-25T01:21:56.601Z,15.88
2018-04-25T01:22:56.857Z,15.89
2018-04-25T01:23:56.584Z,15.88
2018-04-25T01:24:56.830Z,15.85
2018-04-25T01:25:56.752Z,15.92
2018-04-25T01:26:56.539Z,15.88
2018-04-25T01:27:56.570Z,15.93
2018-04-25T01:28:56.780Z,15.94
2018-04-25T01:29:56.246Z,15.96
2018-04-25T01:30:56.240Z,15.94
2018-04-25T01:31:56.472Z,15.94
2018-04-25T01:32:56.457Z,15.94
2018-04-25T01:33:56.195Z,16
2018-04-25T01:34:56.697Z,16.01
2018-04-25T01:35:56.151Z,16.01
2018-04-25T01:36:56.141Z,16
2018-04-25T01:37:56.127Z,16.06
2018-04-25T01:38:56.643Z,16.04
2018-04-25T01:39:56.363Z,16.09
2018-04-25T01:40:56.357Z,16.04
2018-04-25T01:41:56.068Z,16.15
2018-04-25T01:42:56.589Z,16.12
2018-04-25T01:43:56.334Z,16.04
2018-04-25T01:44:56.309Z,16.04
2018-04-25T01:45:56.608Z,16.03
2018-04-25T01:46:56.271Z,16.12
2018-04-25T01:47:56.262Z,16.11
2018-04-25T01:48:56.513Z,16.07
2018-04-25T01:49:56.236Z,16.15
2018-04-25T01:50:56.505Z,16.22
2018-04-25T01:51:55.943Z,16.18
2018-04-25T01:52:55.928Z,16.22
2018-04-25T01:53:56.196Z,16.3
2018-04-25T01:54:56.451Z,16.2
2018-04-25T01:55:56.196Z,16.25
2018-04-25T01:56:56.410Z,16.31
2018-04-25T01:57:56.145Z,16.31
2018-04-25T01:58:55.857Z,16.38
2018-04-25T01:59:56.111Z,16.33
2018-04-25T02:00:56.087Z,16.41
2018-04-25T02:01:56.080Z,16.41
2018-04-25T02:02:56.069Z,16.41
2018-04-25T02:03:56.336Z,16.4
2018-04-25T02:04:56.042Z,16.4
2018-04-25T02:05:56.036Z,16.34
2018-04-25T02:06:56.286Z,16.4
2018-04-25T02:07:56.348Z,16.45
2018-04-25T02:08:55.727Z,16.5
2018-04-25T02:09:55.987Z,16.44
2018-04-25T02:10:55.698Z,16.49
2018-04-25T02:11:55.948Z,16.49
2018-04-25T02:12:55.943Z,16.48
2018-04-25T02:13:55.941Z,16.44
2018-04-25T02:14:55.644Z,16.52
2018-04-25T02:15:56.160Z,16.55
2018-04-25T02:16:56.150Z,16.56
2018-04-25T02:17:55.875Z,16.53
2018-04-25T02:18:56.124Z,16.59
2018-04-25T02:19:56.118Z,16.52
2018-04-25T02:20:55.843Z,16.49
2018-04-25T02:21:55.557Z,16.5
2018-04-25T02:22:55.542Z,16.49
2018-04-25T02:23:56.063Z,16.49
2018-04-25T02:24:55.787Z,16.5
2018-04-25T02:25:55.772Z,16.49
2018-04-25T02:26:55.760Z,16.53
2018-04-25T02:27:55.742Z,16.45
2018-04-25T02:28:56.001Z,16.52
2018-04-25T02:29:55.719Z,16.53
2018-04-25T02:30:55.983Z,16.55
2018-04-25T02:31:55.979Z,16.45
2018-04-25T02:32:55.680Z,16.52
2018-04-25T02:33:55.408Z,16.44
2018-04-25T02:34:55.930Z,16.41
2018-04-25T02:35:55.915Z,16.49
2018-04-25T02:36:55.636Z,16.49
2018-04-25T02:37:55.622Z,16.48
2018-04-25T02:38:55.337Z,16.48
2018-04-25T02:39:55.859Z,16.38
2018-04-25T02:40:55.855Z,16.41
2018-04-25T02:41:55.566Z,16.42
2018-04-25T02:42:55.294Z,16.49
2018-04-25T02:43:55.282Z,16.49
2018-04-25T02:44:55.524Z,16.38
2018-04-25T02:45:55.452Z,16.44
2018-04-25T02:46:55.503Z,16.35
2018-04-25T02:47:55.768Z,16.4
2018-04-25T02:48:55.745Z,16.42
2018-04-25T02:49:55.730Z,16.33
2018-04-25T02:50:55.449Z,16.34
2018-04-25T02:51:55.699Z,16.35
2018-04-25T02:52:55.433Z,16.26
2018-04-25T02:53:55.149Z,16.27
2018-04-25T02:54:55.664Z,16.38
2018-04-25T02:55:55.386Z,16.3
2018-04-25T02:56:55.641Z,16.26
2018-04-25T02:57:55.371Z,16.33
2018-04-25T02:58:55.430Z,16.3
2018-04-25T02:59:55.617Z,16.31
2018-04-25T03:00:55.328Z,16.26
2018-04-25T03:01:55.319Z,16.25
2018-04-25T03:02:55.611Z,16.26
2018-04-25T03:03:55.286Z,16.25
2018-04-25T03:04:55.012Z,16.25
2018-04-25T03:05:55.254Z,16.31
2018-04-25T03:06:54.981Z,16.23
2018-04-25T03:07:55.269Z,16.18
2018-04-25T03:08:55.239Z,16.22
2018-04-25T03:09:55.227Z,16.2
2018-04-25T03:10:55.457Z,16.16
2018-04-25T03:11:54.929Z,16.18
2018-04-25T03:12:54.918Z,16.16
2018-04-25T03:13:55.161Z,16.18
2018-04-25T03:14:55.137Z,16.2
2018-04-25T03:15:55.401Z,16.18
2018-04-25T03:16:54.856Z,16.14
2018-04-25T03:17:55.366Z,16.14
2018-04-25T03:18:54.823Z,16.14
2018-04-25T03:19:55.338Z,16.15
2018-04-25T03:20:55.263Z,16.15
2018-04-25T03:21:55.059Z,16.18
2018-04-25T03:22:55.311Z,16.2
2018-04-25T03:23:55.023Z,16.16
2018-04-25T03:24:55.278Z,16.18
2018-04-25T03:25:55.256Z,16.2
2018-04-25T03:26:54.981Z,16.15
2018-04-25T03:27:54.966Z,16.18
2018-04-25T03:28:55.226Z,16.16
2018-04-25T03:29:55.223Z,16.11
2018-04-25T03:30:55.141Z,16.14
2018-04-25T03:31:54.651Z,16.15
2018-04-25T03:32:54.906Z,16.14
2018-04-25T03:33:55.160Z,16.12
2018-04-25T03:34:55.215Z,16.11
2018-04-25T03:35:54.600Z,16.09
2018-04-25T03:36:55.150Z,16.09
2018-04-25T03:37:54.847Z,16.03
2018-04-25T03:38:55.098Z,16.11
2018-04-25T03:39:54.821Z,16.11
2018-04-25T03:40:54.803Z,16.04
2018-04-25T03:41:54.525Z,16.12
2018-04-25T03:42:54.780Z,16.07
2018-04-25T03:43:55.036Z,16.16
2018-04-25T03:44:55.022Z,16.12
2018-04-25T03:45:54.732Z,16.09
2018-04-25T03:46:54.724Z,16.06
2018-04-25T03:47:54.446Z,16.11
2018-04-25T03:48:54.697Z,16.12
2018-04-25T03:49:54.945Z,16.04
2018-04-25T03:50:54.945Z,16.04
2018-04-25T03:51:54.399Z,16.14
2018-04-25T03:52:54.653Z,16.06
2018-04-25T03:53:54.368Z,16.03
2018-04-25T03:54:54.625Z,16.07
2018-04-25T03:55:54.603Z,16
2018-04-25T03:56:54.596Z,16.06
2018-04-25T03:57:54.312Z,16.07
2018-04-25T03:58:54.564Z,16.03
2018-04-25T03:59:54.285Z,15.99
2018-04-25T04:00:54.271Z,15.96
2018-04-25T04:01:54.258Z,16.03
2018-04-25T04:02:54.514Z,15.97
2018-04-25T04:03:54.504Z,16
2018-04-25T04:04:54.220Z,15.97
2018-04-25T04:05:54.487Z,16.11
2018-04-25T04:06:54.725Z,16.01
2018-04-25T04:07:54.446Z,16.04
2018-04-25T04:08:54.454Z,16.04
2018-04-25T04:09:54.420Z,16.01
2018-04-25T04:10:54.679Z,16.01
2018-04-25T04:11:54.658Z,16.07
2018-04-25T04:12:54.479Z,16.01
2018-04-25T04:13:54.375Z,16.06
2018-04-25T04:14:54.361Z,16.04
2018-04-25T04:15:54.611Z,16.06
2018-04-25T04:16:54.590Z,16.06
2018-04-25T04:17:54.320Z,16.01
2018-04-25T04:18:54.568Z,15.99
2018-04-25T04:19:54.558Z,16
2018-04-25T04:20:54.279Z,16.01
2018-04-25T04:21:54.263Z,16.07
2018-04-25T04:22:54.252Z,15.94
2018-04-25T04:23:54.588Z,15.97
2018-04-25T04:24:54.796Z,15.97
2018-04-25T04:25:54.210Z,15.94
2018-04-25T04:26:53.933Z,15.97
2018-04-25T04:27:54.188Z,15.92
2018-04-25T04:28:54.440Z,15.89
2018-04-25T04:29:54.167Z,15.89
2018-04-25T04:30:54.412Z,15.88
2018-04-25T04:31:53.870Z,15.92
2018-04-25T04:32:54.393Z,15.93
2018-04-25T04:33:53.850Z,15.85
2018-04-25T04:34:54.371Z,15.97
2018-04-25T04:35:53.815Z,15.84
2018-04-25T04:36:54.330Z,15.84
2018-04-25T04:37:54.321Z,15.84
2018-04-25T04:38:54.309Z,15.92
2018-04-25T04:39:54.031Z,15.86
2018-04-25T04:40:54.014Z,15.85
2018-04-25T04:41:53.997Z,15.81
2018-04-25T04:42:53.984Z,15.76
2018-04-25T04:43:53.972Z,15.78
2018-04-25T04:44:54.228Z,15.92
2018-04-25T04:45:54.197Z,15.76
2018-04-25T04:46:53.937Z,15.76
2018-04-25T04:47:54.192Z,15.78
2018-04-25T04:48:54.172Z,15.79
2018-04-25T04:49:53.894Z,15.76
2018-04-25T04:50:54.151Z,15.79
2018-04-25T04:51:53.862Z,15.74
2018-04-25T04:52:53.851Z,15.72
2018-04-25T04:53:54.108Z,15.76
2018-04-25T04:54:53.829Z,15.76
2018-04-25T04:55:53.814Z,15.81
2018-04-25T04:56:54.066Z,15.78
2018-04-25T04:57:54.064Z,15.74
2018-04-25T04:58:53.771Z,15.74
2018-04-25T04:59:53.940Z,15.74
2018-04-25T05:00:53.768Z,15.7
2018-04-25T05:01:53.731Z,15.72
2018-04-25T05:02:53.724Z,15.72
2018-04-25T05:03:53.994Z,15.79
2018-04-25T05:04:53.691Z,15.74
2018-04-25T05:05:53.949Z,15.68
2018-04-25T05:06:53.669Z,15.7
2018-04-25T05:07:53.388Z,15.79
2018-04-25T05:08:53.638Z,15.7
2018-04-25T05:09:53.622Z,15.75
2018-04-25T05:10:53.609Z,15.82
2018-04-25T05:11:53.337Z,15.85
2018-04-25T05:12:53.326Z,15.85
2018-04-25T05:13:53.928Z,15.79
2018-04-25T05:14:53.568Z,15.82
2018-04-25T05:15:53.293Z,15.85
2018-04-25T05:16:53.796Z,15.82
2018-04-25T05:17:53.523Z,15.72
2018-04-25T05:18:53.243Z,15.82
2018-04-25T05:19:53.765Z,15.81
2018-04-25T05:20:53.215Z,15.79
2018-04-25T05:21:53.486Z,15.82
2018-04-25T05:22:53.454Z,15.76
2018-04-25T05:23:53.440Z,15.72
2018-04-25T05:24:53.441Z,15.74
2018-04-25T05:25:53.148Z,15.63
2018-04-25T05:26:53.416Z,15.64
2018-04-25T05:27:53.656Z,15.7
2018-04-25T05:28:53.371Z,15.67
2018-04-25T05:29:53.358Z,15.6
2018-04-25T05:30:53.613Z,15.61
2018-04-25T05:31:53.737Z,15.56
2018-04-25T05:32:53.582Z,15.6
2018-04-25T05:33:53.310Z,15.56
2018-04-25T05:34:53.300Z,15.56
2018-04-25T05:35:53.016Z,15.56
2018-04-25T05:36:53.552Z,15.49
2018-04-25T05:37:53.257Z,15.51
2018-04-25T05:38:53.332Z,15.56
2018-04-25T05:39:53.491Z,15.45
2018-04-25T05:40:52.947Z,15.27
2018-04-25T05:41:53.199Z,15.09
2018-04-25T05:42:52.920Z,14.9
2018-04-25T05:43:53.176Z,14.67
2018-04-25T05:44:53.165Z,14.56
2018-04-25T05:45:53.150Z,14.44
2018-04-25T05:46:52.867Z,14.42
2018-04-25T05:47:52.849Z,14.38
2018-04-25T05:48:53.104Z,14.34
2018-04-25T05:49:53.095Z,14.37
2018-04-25T05:50:53.341Z,14.29
2018-04-25T05:51:53.238Z,14.37
2018-04-25T05:52:53.249Z,14.34
2018-04-25T05:53:53.030Z,14.29
2018-04-25T05:54:53.016Z,14.32
2018-04-25T05:55:52.743Z,14.37
2018-04-25T05:56:53.255Z,14.37
2018-04-25T05:57:53.386Z,14.44
2018-04-25T05:58:52.698Z,14.46
2018-04-25T05:59:52.684Z,14.49
2018-04-25T06:00:53.197Z,14.47
2018-04-25T06:01:53.190Z,14.53
2018-04-25T06:02:52.907Z,14.52
2018-04-25T06:03:53.169Z,14.53
2018-04-25T06:04:53.139Z,14.47
2018-04-25T06:05:52.862Z,14.5
2018-04-25T06:06:52.847Z,14.49
2018-04-25T06:07:53.125Z,14.35
2018-04-25T06:08:52.817Z,14.43
2018-04-25T06:09:52.539Z,14.34
2018-04-25T06:10:52.534Z,14.17
2018-04-25T06:11:52.509Z,14.14
2018-04-25T06:12:52.768Z,13.94
2018-04-25T06:13:52.765Z,13.87
2018-04-25T06:14:52.480Z,13.73
2018-04-25T06:15:52.986Z,13.65
2018-04-25T06:16:52.974Z,13.56
2018-04-25T06:17:52.685Z,13.52
2018-04-25T06:18:52.672Z,13.43
2018-04-25T06:19:52.945Z,13.22
2018-04-25T06:20:52.918Z,13.29
2018-04-25T06:21:52.628Z,13.21
2018-04-25T06:22:52.883Z,13.21
2018-04-25T06:23:52.333Z,13.14
2018-04-25T06:24:52.319Z,13.17
2018-04-25T06:25:52.840Z,13.17
2018-04-25T06:26:52.838Z,13.11
2018-04-25T06:27:52.552Z,13.15
2018-04-25T06:28:52.259Z,13.09
2018-04-25T06:29:52.513Z,13.12
2018-04-25T06:30:52.503Z,13.12
2018-04-25T06:31:52.479Z,13.18
2018-04-25T06:32:52.473Z,13.12
2018-04-25T06:33:52.459Z,13.11
2018-04-25T06:34:52.172Z,13.15
2018-04-25T06:35:52.689Z,13.07
2018-04-25T06:36:52.678Z,13.21
2018-04-25T06:37:52.659Z,13.2
2018-04-25T06:38:52.374Z,13.21
2018-04-25T06:39:52.360Z,13.24
2018-04-25T06:40:52.081Z,13.27
2018-04-25T06:41:52.071Z,13.25
2018-04-25T06:42:52.316Z,13.25
2018-04-25T06:43:52.566Z,13.41
2018-04-25T06:44:52.930Z,13.25
2018-04-25T06:45:52.472Z,13.37
2018-04-25T06:46:52.256Z,13.4
2018-04-25T06:47:52.245Z,13.51
2018-04-25T06:48:52.225Z,13.59
2018-04-25T06:49:51.947Z,13.52
2018-04-25T06:50:52.195Z,13.58
2018-04-25T06:51:51.913Z,13.59
2018-04-25T06:52:52.170Z,13.65
2018-04-25T06:53:52.420Z,13.7
2018-04-25T06:54:52.404Z,13.69
2018-04-25T06:55:52.118Z,13.77
2018-04-25T06:56:52.750Z,13.81
2018-04-25T06:57:52.102Z,13.77
2018-04-25T06:58:52.089Z,13.95
2018-04-25T06:59:52.061Z,13.96
2018-04-25T07:00:52.312Z,13.94
2018-04-25T07:01:51.771Z,13.94
2018-04-25T07:02:52.022Z,14.01
2018-04-25T07:03:52.004Z,14.07
2018-04-25T07:04:52.260Z,14.19
2018-04-25T07:05:52.244Z,14.19
2018-04-25T07:06:51.700Z,14.31
2018-04-25T07:07:52.062Z,14.32
2018-04-25T07:08:51.669Z,14.28
2018-04-25T07:09:51.926Z,14.32
2018-04-25T07:10:51.910Z,14.25
2018-04-25T07:11:52.174Z,14.24
2018-04-25T07:12:51.887Z,14.29
2018-04-25T07:13:51.611Z,14.38
2018-04-25T07:14:51.587Z,14.46
2018-04-25T07:15:52.108Z,14.44
2018-04-25T07:16:52.089Z,14.37
2018-04-25T07:17:52.072Z,14.35
2018-04-25T07:18:51.797Z,14.38
2018-04-25T07:19:51.785Z,14.35
2018-04-25T07:20:51.776Z,14.37
2018-04-25T07:21:51.756Z,14.38
2018-04-25T07:22:51.742Z,14.32
2018-04-25T07:23:51.814Z,14.35
2018-04-25T07:24:51.450Z,14.47
2018-04-25T07:25:51.440Z,14.47
2018-04-25T07:26:51.968Z,14.47
2018-04-25T07:27:51.948Z,14.43
2018-04-25T07:28:51.398Z,14.43
2018-04-25T07:29:51.647Z,14.47
2018-04-25T07:30:51.910Z,14.49
2018-04-25T07:31:51.622Z,14.5
2018-04-25T07:32:51.883Z,14.52
2018-04-25T07:33:51.337Z,14.43
2018-04-25T07:34:51.858Z,14.32
2018-04-25T07:35:51.572Z,14.37
2018-04-25T07:36:51.825Z,14.31
2018-04-25T07:37:51.545Z,14.35
2018-04-25T07:38:51.260Z,14.35
2018-04-25T07:39:51.783Z,14.38
2018-04-25T07:40:51.499Z,14.39
2018-04-25T07:41:51.564Z,14.44
2018-04-25T07:42:51.481Z,14.43
2018-04-25T07:43:51.725Z,14.49
2018-04-25T07:44:51.710Z,14.52
2018-04-25T07:45:51.698Z,14.75
2018-04-25T07:46:51.416Z,14.84
2018-04-25T07:47:51.673Z,14.93
2018-04-25T07:48:51.390Z,14.99
2018-04-25T07:49:51.389Z,14.98
2018-04-25T07:50:51.368Z,15.02
2018-04-25T07:51:51.627Z,15.08
2018-04-25T07:52:51.074Z,15.09
2018-04-25T07:53:51.590Z,15.3
2018-04-25T07:54:51.315Z,15.3
2018-04-25T07:55:51.042Z,15.21
2018-04-25T07:56:51.283Z,15.28
2018-04-25T07:57:51.382Z,15.26
2018-04-25T07:58:51.726Z,15.28
2018-04-25T07:59:51.449Z,15.33
2018-04-25T08:00:51.513Z,15.36
2018-04-25T08:01:51.489Z,15.48
2018-04-25T08:02:51.476Z,15.57
2018-04-25T08:03:51.208Z,15.59
2018-04-25T08:04:51.181Z,15.41
2018-04-25T08:05:51.487Z,15.49
2018-04-25T08:06:51.420Z,15.56
2018-04-25T08:07:50.896Z,15.45
2018-04-25T08:08:50.869Z,15.59
2018-04-25T08:09:50.857Z,15.72
2018-04-25T08:10:51.456Z,15.89
2018-04-25T08:11:51.115Z,15.81
2018-04-25T08:12:51.351Z,15.64
2018-04-25T08:13:51.069Z,15.49
2018-04-25T08:14:51.060Z,15.51
2018-04-25T08:15:51.056Z,15.39
2018-04-25T08:16:51.302Z,15.11
2018-04-25T08:17:51.024Z,14.95
2018-04-25T08:18:51.275Z,14.81
2018-04-25T08:19:50.998Z,14.5
2018-04-25T08:20:51.256Z,14.24
2018-04-25T08:21:50.968Z,14.07
2018-04-25T08:22:50.956Z,13.94
2018-04-25T08:23:51.088Z,13.89
2018-04-25T08:24:50.669Z,13.87
2018-04-25T08:25:50.922Z,13.62
2018-04-25T08:26:51.173Z,13.59
2018-04-25T08:27:51.159Z,13.59
2018-04-25T08:28:50.879Z,13.55
2018-04-25T08:29:50.866Z,13.87
2018-04-25T08:30:51.121Z,13.95
2018-04-25T08:31:50.841Z,14.25
2018-04-25T08:32:51.101Z,14.78
2018-04-25T08:33:50.818Z,14.67
2018-04-25T08:34:51.069Z,14.6
2018-04-25T08:35:50.792Z,15.41
2018-04-25T08:36:51.111Z,16.01
2018-04-25T08:37:50.765Z,16.45
2018-04-25T08:38:51.013Z,16.81
2018-04-25T08:39:51.003Z,16.52
2018-04-25T08:40:50.726Z,16.4
2018-04-25T08:41:50.978Z,15.92
2018-04-25T08:42:50.430Z,15.43
2018-04-25T08:43:50.685Z,15.46
2018-04-25T08:44:50.552Z,15.39
2018-04-25T08:45:50.875Z,15.39
2018-04-25T08:46:50.922Z,15.48
2018-04-25T08:47:50.377Z,15.51
2018-04-25T08:48:50.628Z,15.67
2018-04-25T08:49:50.612Z,15.64
2018-04-25T08:50:50.607Z,15.89
2018-04-25T08:51:50.867Z,15.67
2018-04-25T08:52:50.694Z,15.46
2018-04-25T08:53:50.840Z,15.09
2018-04-25T08:54:50.829Z,14.98
2018-04-25T08:55:50.568Z,14.95
2018-04-25T08:56:50.542Z,15.08
2018-04-25T08:57:50.255Z,15.2
2018-04-25T08:58:50.250Z,15.24
2018-04-25T08:59:50.764Z,15.36
2018-04-25T09:00:50.223Z,15.54
2018-04-25T09:01:50.743Z,15.57
2018-04-25T09:02:50.470Z,15.51
2018-04-25T09:03:50.450Z,15.61
2018-04-25T09:04:50.441Z,15.54
2018-04-25T09:05:50.566Z,15.54
2018-04-25T09:06:50.420Z,15.38
2018-04-25T09:07:50.409Z,15.39
2018-04-25T09:08:50.678Z,15.35
2018-04-25T09:09:50.382Z,15.43
2018-04-25T09:10:50.713Z,15.45
2018-04-25T09:11:50.374Z,15.48
2018-04-25T09:12:50.355Z,15.39
2018-04-25T09:13:50.614Z,15.43
2018-04-25T09:14:50.069Z,15.41
2018-04-25T09:15:50.315Z,15.21
2018-04-25T09:16:50.037Z,15.19
2018-04-25T09:17:50.289Z,15.15
2018-04-25T09:18:50.280Z,15.24
2018-04-25T09:19:50.000Z,15.46
2018-04-25T09:20:50.257Z,15.41
2018-04-25T09:21:50.245Z,15.38
2018-04-25T09:22:50.500Z,15.41
2018-04-25T09:23:50.487Z,15.43
2018-04-25T09:24:50.212Z,15.41
2018-04-25T09:25:50.201Z,15.35
2018-04-25T09:26:50.129Z,15.35
2018-04-25T09:27:50.449Z,15.13
2018-04-25T09:28:50.441Z,15.12
2018-04-25T09:29:50.155Z,15.2
2018-04-25T09:30:50.151Z,15.09
2018-04-25T09:31:49.871Z,15.08
2018-04-25T09:32:49.863Z,15.02
2018-04-25T09:33:50.181Z,14.99
2018-04-25T09:34:50.155Z,14.99
2018-04-25T09:35:50.094Z,14.93
2018-04-25T09:36:50.075Z,14.98
2018-04-25T09:37:50.066Z,15.09
2018-04-25T09:38:49.785Z,15.24
2018-04-25T09:39:50.044Z,15.43
2018-04-25T09:40:50.303Z,15.41
2018-04-25T09:41:50.017Z,15.31
2018-04-25T09:42:50.004Z,15.24
2018-04-25T09:43:49.995Z,15.28
2018-04-25T09:44:49.983Z,15.21
2018-04-25T09:45:50.290Z,15.43
2018-04-25T09:46:49.959Z,15.42
2018-04-25T09:47:49.950Z,15.41
2018-04-25T09:48:49.940Z,15.39
2018-04-25T09:49:50.192Z,15.39
2018-04-25T09:50:49.915Z,15.23
2018-04-25T09:51:50.071Z,15.06
2018-04-25T09:52:49.893Z,15.08
2018-04-25T09:53:49.619Z,15.15
2018-04-25T09:54:49.866Z,15.05
2018-04-25T09:55:49.865Z,14.99
2018-04-25T09:56:49.852Z,14.99
2018-04-25T09:57:50.247Z,14.98
2018-04-25T09:58:49.817Z,14.99
2018-04-25T09:59:50.087Z,15.02
2018-04-25T10:00:49.798Z,14.95
2018-04-25T10:01:50.051Z,15.02
2018-04-25T10:02:49.773Z,15.03
2018-04-25T10:03:49.502Z,15.12
2018-04-25T10:04:50.021Z,15.21
2018-04-25T10:05:49.741Z,15.26
2018-04-25T10:06:49.733Z,15.23
2018-04-25T10:07:49.986Z,15.3
2018-04-25T10:08:49.440Z,15.31
2018-04-25T10:09:49.968Z,15.23
2018-04-25T10:10:49.884Z,15.13
2018-04-25T10:11:49.952Z,15.11
2018-04-25T10:12:49.656Z,15.17
2018-04-25T10:13:49.642Z,15.11
2018-04-25T10:14:49.641Z,15.08
2018-04-25T10:15:49.883Z,15.06
2018-04-25T10:16:49.346Z,15.09
2018-04-25T10:17:49.606Z,14.94
2018-04-25T10:18:49.858Z,15.02
2018-04-25T10:19:49.577Z,14.86
2018-04-25T10:20:49.567Z,14.75
2018-04-25T10:21:49.290Z,14.9
2018-04-25T10:22:49.537Z,14.94
2018-04-25T10:23:49.538Z,14.93
2018-04-25T10:24:49.517Z,14.93
2018-04-25T10:25:49.620Z,14.93
2018-04-25T10:26:49.499Z,14.84
2018-04-25T10:27:49.745Z,14.69
2018-04-25T10:28:49.207Z,14.61
2018-04-25T10:29:49.724Z,14.62
2018-04-25T10:30:49.443Z,14.65
2018-04-25T10:31:49.701Z,14.65
2018-04-25T10:32:49.428Z,14.65
2018-04-25T10:33:49.686Z,14.68
2018-04-25T10:34:49.392Z,14.74
2018-04-25T10:35:49.121Z,14.78
2018-04-25T10:36:49.111Z,14.8
2018-04-25T10:37:49.358Z,14.91
2018-04-25T10:38:50.109Z,14.78
2018-04-25T10:39:49.679Z,14.87
2018-04-25T10:40:49.325Z,14.87
2018-04-25T10:41:49.584Z,14.99
2018-04-25T10:42:49.390Z,15.11
2018-04-25T10:43:49.284Z,15.09
2018-04-25T10:44:49.578Z,15.05
2018-04-25T10:45:49.198Z,15.09
2018-04-25T10:46:49.516Z,15.15
2018-04-25T10:47:48.982Z,15.3
2018-04-25T10:48:49.218Z,15.38
2018-04-25T10:49:49.484Z,15.41
2018-04-25T10:50:49.470Z,15.33
2018-04-25T10:51:48.958Z,15.41
2018-04-25T10:52:49.175Z,15.48
2018-04-25T10:53:49.183Z,15.39
2018-04-25T10:54:49.156Z,15.51
2018-04-25T10:55:49.423Z,15.51
2018-04-25T10:56:49.398Z,15.66
2018-04-25T10:57:49.123Z,15.85
2018-04-25T10:58:49.109Z,15.82
2018-04-25T10:59:49.376Z,15.85
2018-04-25T11:00:49.175Z,16.16
2018-04-25T11:01:49.120Z,16.71
2018-04-25T11:02:49.065Z,17.06
2018-04-25T11:03:49.331Z,17.2
2018-04-25T11:04:49.043Z,17.55
2018-04-25T11:05:49.045Z,17.85
2018-04-25T11:06:48.761Z,17.57
2018-04-25T11:07:48.775Z,17.59
2018-04-25T11:08:49.016Z,17.66
2018-04-25T11:09:49.019Z,17.84
2018-04-25T11:10:49.263Z,17.43
2018-04-25T11:11:49.015Z,17.51
2018-04-25T11:12:49.253Z,17.85
2018-04-25T11:13:49.279Z,17.87
2018-04-25T11:14:48.978Z,17.69
2018-04-25T11:15:49.253Z,18.19
2018-04-25T11:16:49.243Z,18.5
2018-04-25T11:17:48.982Z,18.59
2018-04-25T11:18:48.964Z,18.87
2018-04-25T11:19:48.955Z,19.21
2018-04-25T11:20:49.214Z,19.2
2018-04-25T11:21:48.941Z,19.11
2018-04-25T11:22:49.205Z,19.1
2018-04-25T11:23:48.939Z,19.06
2018-04-25T11:24:48.934Z,18.77
2018-04-25T11:25:48.929Z,18.82
2018-04-25T11:26:49.194Z,18.77
2018-04-25T11:27:48.934Z,18.46
2018-04-25T11:28:48.653Z,18.21
2018-04-25T11:29:49.180Z,17.94
2018-04-25T11:30:48.921Z,17.84
2018-04-25T11:31:49.211Z,17.41
2018-04-25T11:32:48.907Z,17.25
2018-04-25T11:33:48.897Z,17.5
2018-04-25T11:34:48.895Z,17.64
2018-04-25T11:35:48.890Z,17.81
2018-04-25T11:36:48.892Z,17.67
2018-04-25T11:37:49.159Z,17.43
2018-04-25T11:38:48.877Z,17.47
2018-04-25T11:39:48.872Z,17.48
2018-04-25T11:40:48.602Z,17.26
2018-04-25T11:41:49.125Z,17.23
2018-04-25T11:42:49.131Z,17.26
2018-04-25T11:43:49.120Z,17.13
2018-04-25T11:44:48.587Z,16.96
2018-04-25T11:45:49.108Z,16.9
2018-04-25T11:46:48.833Z,16.88
2018-04-25T11:47:49.099Z,16.52
2018-04-25T11:48:48.816Z,16.34
2018-04-25T11:49:48.816Z,16.31
2018-04-25T11:50:49.074Z,16.16
2018-04-25T11:51:48.801Z,16.11
2018-04-25T11:52:49.068Z,15.93
2018-04-25T11:53:48.789Z,15.93
2018-04-25T11:54:48.518Z,15.97
2018-04-25T11:55:48.501Z,16.06
2018-04-25T11:56:48.761Z,16.06
2018-04-25T11:57:48.758Z,16.03
2018-04-25T11:58:49.015Z,15.93
2018-04-25T11:59:48.900Z,16.03
2018-04-25T12:00:48.467Z,16.14
2018-04-25T12:01:49.051Z,16.33
2018-04-25T12:02:48.459Z,16.62
2018-04-25T12:03:48.703Z,16.71
2018-04-25T12:04:48.959Z,16.86
2018-04-25T12:05:48.685Z,17.25
2018-04-25T12:06:48.682Z,17.71
2018-04-25T12:07:48.676Z,17.82
2018-04-25T12:08:48.663Z,18.09
2018-04-25T12:09:48.651Z,18.31
2018-04-25T12:10:48.646Z,18.25
2018-04-25T12:11:48.911Z,18.1
2018-04-25T12:12:48.901Z,17.92
2018-04-25T12:13:48.896Z,17.88
2018-04-25T12:14:48.887Z,18.13
2018-04-25T12:15:48.622Z,18.21
2018-04-25T12:16:48.609Z,18.54
2018-04-25T12:17:48.610Z,18.27
2018-04-25T12:18:48.745Z,18.07
2018-04-25T12:19:48.595Z,17.81
2018-04-25T12:20:48.583Z,17.57
2018-04-25T12:21:48.839Z,17.23
2018-04-25T12:22:48.583Z,17.28
2018-04-25T12:23:48.566Z,17.66
2018-04-25T12:24:48.559Z,18.13
2018-04-25T12:25:48.553Z,18.12
2018-04-25T12:26:48.550Z,18.27
2018-04-25T12:27:48.808Z,18.43
2018-04-25T12:28:48.274Z,18.29
2018-04-25T12:29:48.270Z,18.24
2018-04-25T12:30:48.541Z,17.82
2018-04-25T12:31:48.521Z,17.82
2018-04-25T12:32:48.253Z,17.94
2018-04-25T12:33:48.247Z,17.82
2018-04-25T12:34:48.503Z,18.02
2018-04-25T12:35:48.269Z,17.94
2018-04-25T12:36:48.518Z,17.97
2018-04-25T12:37:48.812Z,17.95
2018-04-25T12:38:48.487Z,18.57
2018-04-25T12:39:48.490Z,18.9
2018-04-25T12:40:48.474Z,19.5
2018-04-25T12:41:48.670Z,19.83
2018-04-25T12:42:48.467Z,19.83
2018-04-25T12:43:48.729Z,20.08
2018-04-25T12:44:48.195Z,20.21
2018-04-25T12:45:48.926Z,20.76
2018-04-25T12:46:48.457Z,21.26
2018-04-25T12:47:48.461Z,21.38
2018-04-25T12:48:48.450Z,21.06
2018-04-25T12:49:48.457Z,20.59
2018-04-25T12:50:48.704Z,20.43
2018-04-25T12:51:48.704Z,20.46
2018-04-25T12:52:48.752Z,20.23
2018-04-25T12:53:48.701Z,20.38
2018-04-25T12:54:48.165Z,20.18